Time;durP1;ratioP1;P1;durP2;ratioP2;P2;SDS_P1;SDS_P2;PMS_P1;PMS_P2;Temp;Humidity;BMP_temperature;BMP_pressure;BME280_temperature;BME280_humidity;BME280_pressure;Samples;Min_cycle;Max_cycle;Signal;HPM_P1;HPM_P2
2022/08/19 00:01:00;;;;;;;60.95;26.75;;;;;;;;;;6179620;23;20025;-51
2022/08/19 00:03:28;;;;;;;68.55;26.08;;;;;;;;;;6179729;23;20021;-52
2022/08/19 00:06:02;;;;;;;62.17;26.20;;;;;;;;;;6179228;23;20032;-47
2022/08/19 00:08:29;;;;;;;75.90;26.40;;;;;;;;;;6179269;23;20025;-53
2022/08/19 00:10:57;;;;;;;79.72;26.98;;;;;;;;;;6180126;23;20025;-50
2022/08/19 00:13:32;;;;;;;93.82;27.67;;;;;;;;;;6178883;23;20820;-56
2022/08/19 00:16:00;;;;;;;67.40;26.92;;;;;;;;;;6179757;23;20071;-60
2022/08/19 00:18:27;;;;;;;74.20;24.90;;;;;;;;;;6179145;23;20025;-60
2022/08/19 00:21:02;;;;;;;149.63;29.00;;;;;;;;;;6179131;23;20025;-60
2022/08/19 00:23:29;;;;;;;;;;;;;;;;;;6178986;23;20348;-60
2022/08/19 00:25:57;;;;;;;70.97;23.70;;;;;;;;;;6179069;23;20342;-59
2022/08/19 00:28:37;;;;;;;58.80;23.38;;;;;;;;;;6178503;23;20087;-60
2022/08/19 00:31:11;;;;;;;106.78;26.55;;;;;;;;;;6178880;23;20470;-65
2022/08/19 00:33:45;;;;;;;63.03;24.25;;;;;;;;;;6179155;23;20016;-57
2022/08/19 00:36:13;;;;;;;166.82;27.73;;;;;;;;;;6179345;23;20025;-65
2022/08/19 00:38:43;;;;;;;93.53;25.08;;;;;;;;;;6177983;23;20028;-65
2022/08/19 00:41:20;;;;;;;105.28;22.83;;;;;;;;;;6177640;23;20367;-65
2022/08/19 00:44:19;;;;;;;75.00;24.65;;;;;;;;;;6178417;23;20021;-65
2022/08/19 00:46:54;;;;;;;331.30;29.20;;;;;;;;;;6161142;23;20032;-66
2022/08/19 00:49:24;;;;;;;177.68;25.02;;;;;;;;;;6177775;23;20096;-66
2022/08/19 00:51:53;;;;;;;262.33;30.50;;;;;;;;;;6179410;23;20036;-49
2022/08/19 00:54:27;;;;;;;270.52;27.20;;;;;;;;;;6178701;23;20053;-65
2022/08/19 00:56:57;;;;;;;100.72;24.05;;;;;;;;;;6178614;23;20351;-65
2022/08/19 00:59:25;;;;;;;94.45;23.15;;;;;;;;;;6179185;23;20021;-64
2022/08/19 01:02:20;;;;;;;63.55;18.30;;;;;;;;;;6179090;23;20545;-64
2022/08/19 01:04:47;;;;;;;173.43;22.77;;;;;;;;;;6181256;23;20025;-64
2022/08/19 01:07:20;;;;;;;95.65;21.27;;;;;;;;;;6180905;23;20025;-64
2022/08/19 01:09:50;;;;;;;82.53;19.58;;;;;;;;;;6181222;23;20096;-47
2022/08/19 01:12:17;;;;;;;;;;;;;;;;;;6181393;23;20027;-57
2022/08/19 01:14:51;;;;;;;122.63;19.77;;;;;;;;;;6180834;23;20261;-52
2022/08/19 01:17:18;;;;;;;;;;;;;;;;;;6181027;23;20017;-54
2022/08/19 01:19:46;;;;;;;140.65;21.92;;;;;;;;;;6181455;23;19922;-50
2022/08/19 01:22:23;;;;;;;153.00;21.35;;;;;;;;;;6181689;23;20053;-54
2022/08/19 01:24:59;;;;;;;96.55;20.40;;;;;;;;;;6180617;23;20104;-49
2022/08/19 01:27:49;;;;;;;287.40;26.40;;;;;;;;;;6179538;23;20028;-55
2022/08/19 01:30:19;;;;;;;;;;;;;;;;;;6151541;23;20036;-53
2022/08/19 01:33:00;;;;;;;148.73;20.90;;;;;;;;;;6150654;23;19927;-49
2022/08/19 01:35:28;;;;;;;87.05;19.80;;;;;;;;;;6151446;23;20025;-47
2022/08/19 01:38:08;;;;;;;78.22;18.73;;;;;;;;;;6149798;23;20029;-49
2022/08/19 01:40:38;;;;;;;284.73;26.77;;;;;;;;;;6150972;23;20427;-48
2022/08/19 01:43:11;;;;;;;208.75;23.15;;;;;;;;;;6149862;23;20029;-51
2022/08/19 01:45:39;;;;;;;102.72;21.73;;;;;;;;;;6151262;23;20022;-50
2022/08/19 01:48:07;;;;;;;210.60;26.80;;;;;;;;;;6149852;23;20032;-60
2022/08/19 01:50:43;;;;;;;137.77;23.88;;;;;;;;;;6151539;23;20029;-60
2022/08/19 01:53:11;;;;;;;150.40;23.85;;;;;;;;;;6150411;23;20027;-48
2022/08/19 01:55:41;;;;;;;154.50;22.90;;;;;;;;;;6150905;23;20762;-49
2022/08/19 01:58:21;;;;;;;172.05;24.38;;;;;;;;;;6149669;23;20076;-50
2022/08/19 02:00:48;;;;;;;254.65;28.05;;;;;;;;;;6151358;23;20044;-48
2022/08/19 02:03:22;;;;;;;212.27;26.77;;;;;;;;;;6150524;23;20034;-48
2022/08/19 02:05:54;;;;;;;181.70;28.23;;;;;;;;;;6150666;23;20333;-51
2022/08/19 02:08:22;;;;;;;80.50;23.45;;;;;;;;;;6149420;23;20053;-53
2022/08/19 02:10:55;;;;;;;232.00;30.15;;;;;;;;;;6151260;23;20044;-59
2022/08/19 02:13:23;;;;;;;320.85;32.88;;;;;;;;;;6148386;23;20025;-58
2022/08/19 02:15:52;;;;;;;106.80;29.25;;;;;;;;;;6151164;23;20021;-58
2022/08/19 02:18:30;;;;;;;74.80;28.52;;;;;;;;;;6149506;23;20030;-59
2022/08/19 02:20:57;;;;;;;84.40;29.95;;;;;;;;;;6151327;23;20026;-59
2022/08/19 02:23:24;;;;;;;79.63;30.50;;;;;;;;;;6149391;23;20415;-60
2022/08/19 02:25:58;;;;;;;136.25;31.92;;;;;;;;;;6150063;23;20340;-54
2022/08/19 02:28:33;;;;;;;173.55;31.33;;;;;;;;;;6157201;23;20350;-51
2022/08/19 02:31:15;;;;;;;98.43;28.25;;;;;;;;;;6180302;23;20025;-49
2022/08/19 02:33:42;;;;;;;166.73;31.65;;;;;;;;;;6179022;23;20025;-48
2022/08/19 02:36:17;;;;;;;123.72;30.20;;;;;;;;;;6180326;23;20059;-52
2022/08/19 02:38:47;;;;;;;73.60;27.15;;;;;;;;;;6177603;23;20303;-53
2022/08/19 02:41:22;;;;;;;117.75;29.90;;;;;;;;;;6180260;23;20200;-51
2022/08/19 02:43:57;;;;;;;65.30;26.63;;;;;;;;;;6178220;23;20029;-53
2022/08/19 02:46:46;;;;;;;84.00;29.00;;;;;;;;;;6179540;23;20638;-60
2022/08/19 02:49:20;;;;;;;73.07;27.77;;;;;;;;;;6180418;23;20126;-51
2022/08/19 02:51:47;;;;;;;;;;;;;;;;;;6179988;23;20128;-50
2022/08/19 02:54:21;;;;;;;82.72;28.65;;;;;;;;;;6179611;23;19920;-47
2022/08/19 02:56:55;;;;;;;109.55;29.13;;;;;;;;;;6180334;23;20080;-48
2022/08/19 02:59:24;;;;;;;122.97;30.02;;;;;;;;;;6179667;23;20410;-52
2022/08/19 03:01:58;;;;;;;164.75;31.67;;;;;;;;;;6180218;23;20099;-49
2022/08/19 03:04:31;;;;;;;80.85;27.75;;;;;;;;;;6179730;23;20032;-57
2022/08/19 03:06:59;;;;;;;129.52;31.10;;;;;;;;;;6180027;23;20028;-58
2022/08/19 03:09:38;;;;;;;105.00;31.73;;;;;;;;;;6179268;23;20103;-57
2022/08/19 03:12:11;;;;;;;107.93;30.65;;;;;;;;;;6178814;23;20856;-59
2022/08/19 03:14:39;;;;;;;75.35;28.73;;;;;;;;;;6179615;23;20025;-59
2022/08/19 03:17:07;;;;;;;98.78;30.73;;;;;;;;;;6179923;23;20414;-58
2022/08/19 03:19:42;;;;;;;134.70;34.08;;;;;;;;;;6180241;23;20025;-58
2022/08/19 03:22:10;;;;;;;87.38;30.50;;;;;;;;;;6179104;23;20025;-58
2022/08/19 03:24:37;;;;;;;116.07;35.38;;;;;;;;;;6178577;23;20355;-59
2022/08/19 03:27:12;;;;;;;102.40;33.28;;;;;;;;;;6155883;23;20032;-53
2022/08/19 03:29:45;;;;;;;;;;;;;;;;;;6179436;23;20072;-53
2022/08/19 03:32:19;;;;;;;88.00;31.17;;;;;;;;;;6178941;23;20345;-55
2022/08/19 03:34:59;;;;;;;110.68;32.15;;;;;;;;;;6179186;23;20085;-53
2022/08/19 03:37:33;;;;;;;89.28;32.40;;;;;;;;;;6179039;23;20029;-51
2022/08/19 03:40:02;;;;;;;97.63;34.55;;;;;;;;;;6177958;23;20096;-51
2022/08/19 03:42:29;;;;;;;127.32;37.47;;;;;;;;;;6180011;23;20103;-58
2022/08/19 03:45:15;;;;;;;108.13;34.13;;;;;;;;;;6179077;23;20025;-56
2022/08/19 03:47:42;;;;;;;99.13;35.58;;;;;;;;;;6179301;23;20029;-50
2022/08/19 03:50:17;;;;;;;91.97;35.95;;;;;;;;;;6179118;23;20440;-55
2022/08/19 03:52:48;;;;;;;88.60;33.88;;;;;;;;;;6179487;23;20044;-54
2022/08/19 03:55:15;;;;;;;76.45;32.03;;;;;;;;;;6177526;23;20021;-54
2022/08/19 03:57:51;;;;;;;67.93;31.55;;;;;;;;;;6179759;23;20083;-55
2022/08/19 04:00:24;;;;;;;68.22;31.20;;;;;;;;;;6178794;23;20521;-53
2022/08/19 04:02:58;;;;;;;67.93;30.85;;;;;;;;;;6179753;23;20406;-52
2022/08/19 04:05:28;;;;;;;69.38;32.45;;;;;;;;;;6180185;23;20204;-52
2022/08/19 04:07:58;;;;;;;66.63;31.08;;;;;;;;;;6178398;23;20427;-48
2022/08/19 04:10:40;;;;;;;68.15;30.92;;;;;;;;;;6180055;23;20069;-49
2022/08/19 04:13:08;;;;;;;71.00;31.33;;;;;;;;;;6179257;23;20056;-48
2022/08/19 04:15:44;;;;;;;65.50;31.58;;;;;;;;;;6178054;23;20071;-51
2022/08/19 04:18:11;;;;;;;82.55;32.65;;;;;;;;;;6180077;23;20445;-47
2022/08/19 04:20:43;;;;;;;73.22;32.72;;;;;;;;;;6178363;23;20056;-53
2022/08/19 04:23:18;;;;;;;62.05;31.88;;;;;;;;;;6154130;23;20399;-59
2022/08/19 04:25:45;;;;;;;65.40;32.13;;;;;;;;;;6179814;23;20025;-54
2022/08/19 04:28:13;;;;;;;60.42;31.77;;;;;;;;;;6178628;23;20466;-53
2022/08/19 04:30:48;;;;;;;53.83;30.10;;;;;;;;;;6179650;23;20025;-50
2022/08/19 04:33:17;;;;;;;46.63;27.77;;;;;;;;;;6179122;23;20079;-53
2022/08/19 04:35:52;;;;;;;51.75;29.73;;;;;;;;;;6179126;23;20021;-52
2022/08/19 04:38:26;;;;;;;48.83;27.27;;;;;;;;;;6180502;23;20029;-51
2022/08/19 04:43:50;;;;;;;43.75;27.50;;;;;;;;;;6181254;23;20028;-58
2022/08/19 04:46:17;;;;;;;44.60;27.13;;;;;;;;;;6181081;23;20773;-59
2022/08/19 04:49:05;;;;;;;50.63;26.92;;;;;;;;;;6180510;23;20096;-59
2022/08/19 04:51:42;;;;;;;47.67;26.45;;;;;;;;;;6181980;23;20048;-59
2022/08/19 04:54:10;;;;;;;46.67;25.52;;;;;;;;;;6181387;23;20020;-59
2022/08/19 04:56:39;;;;;;;43.35;24.65;;;;;;;;;;6181313;23;20036;-58
2022/08/19 04:59:14;;;;;;;44.50;24.45;;;;;;;;;;6180734;23;20806;-59
2022/08/19 05:01:43;;;;;;;48.08;25.63;;;;;;;;;;6181687;23;20035;-54
2022/08/19 05:04:10;;;;;;;49.70;25.17;;;;;;;;;;6179696;23;20064;-54
2022/08/19 05:06:48;;;;;;;43.03;24.38;;;;;;;;;;6181901;23;20035;-56
2022/08/19 05:09:16;;;;;;;37.95;23.20;;;;;;;;;;6181467;23;20080;-55
2022/08/19 05:11:53;;;;;;;37.47;23.38;;;;;;;;;;6181269;23;20406;-53
2022/08/19 05:14:21;;;;;;;40.05;23.30;;;;;;;;;;6181112;23;20032;-53
2022/08/19 05:16:48;;;;;;;40.53;22.17;;;;;;;;;;6181657;23;20088;-53
2022/08/19 05:22:43;;;;;;;41.60;21.27;;;;;;;;;;6131323;23;20063;-55
2022/08/19 05:25:19;;;;;;;39.35;22.13;;;;;;;;;;6180460;23;20021;-51
2022/08/19 05:27:47;;;;;;;39.67;22.67;;;;;;;;;;6181894;23;20025;-56
2022/08/19 05:30:15;;;;;;;40.25;20.95;;;;;;;;;;6179158;23;20056;-54
2022/08/19 05:33:09;;;;;;;33.42;21.15;;;;;;;;;;6180504;23;20092;-54
2022/08/19 05:35:38;;;;;;;33.72;20.63;;;;;;;;;;6180666;23;20025;-53
2022/08/19 05:38:12;;;;;;;33.05;21.80;;;;;;;;;;6180585;23;20025;-57
2022/08/19 05:40:39;;;;;;;30.08;21.30;;;;;;;;;;6181151;23;20068;-56
2022/08/19 05:43:07;;;;;;;36.00;22.15;;;;;;;;;;6181110;23;20028;-54
2022/08/19 05:45:42;;;;;;;37.38;21.15;;;;;;;;;;6179892;23;20029;-53
2022/08/19 05:48:10;;;;;;;;;;;;;;;;;;6181086;23;20340;-52
2022/08/19 05:50:39;;;;;;;36.50;20.10;;;;;;;;;;6181052;23;20309;-50
2022/08/19 05:53:16;;;;;;;34.17;19.92;;;;;;;;;;6180751;23;20025;-53
2022/08/19 05:55:43;;;;;;;35.10;21.40;;;;;;;;;;6180040;23;20037;-66
2022/08/19 05:58:10;;;;;;;35.35;20.48;;;;;;;;;;6180618;23;20017;-46
2022/08/19 06:00:54;;;;;;;40.78;20.92;;;;;;;;;;6180802;23;20021;-50
2022/08/19 06:03:21;;;;;;;33.35;19.83;;;;;;;;;;6180776;23;20020;-50
2022/08/19 06:05:56;;;;;;;31.48;19.80;;;;;;;;;;6180849;23;20109;-53
2022/08/19 06:08:23;;;;;;;27.17;19.20;;;;;;;;;;6154565;23;20048;-52
2022/08/19 06:11:12;;;;;;;29.58;18.75;;;;;;;;;;6156351;23;20029;-49
2022/08/19 06:13:50;;;;;;;33.90;19.48;;;;;;;;;;6180566;23;20029;-53
2022/08/19 06:16:26;;;;;;;33.85;20.60;;;;;;;;;;6181068;23;20019;-59
2022/08/19 06:19:01;;;;;;;30.45;19.15;;;;;;;;;;6180160;23;20537;-60
2022/08/19 06:21:29;;;;;;;32.70;18.90;;;;;;;;;;6180888;23;20052;-61
2022/08/19 06:23:57;;;;;;;30.77;19.52;;;;;;;;;;6180070;23;20029;-60
2022/08/19 06:26:32;;;;;;;30.30;19.92;;;;;;;;;;6180772;23;20025;-60
2022/08/19 06:29:12;;;;;;;33.47;19.52;;;;;;;;;;6179955;23;20076;-60
2022/08/19 06:31:51;;;;;;;33.65;20.85;;;;;;;;;;6181418;23;20056;-60
2022/08/19 06:34:19;;;;;;;31.27;18.80;;;;;;;;;;6178929;23;20467;-50
2022/08/19 06:36:48;;;;;;;29.45;17.23;;;;;;;;;;6180805;23;20336;-49
2022/08/19 06:39:23;;;;;;;22.88;16.80;;;;;;;;;;6180221;23;20367;-53
2022/08/19 06:41:52;;;;;;;29.95;17.30;;;;;;;;;;6180498;23;20060;-53
2022/08/19 06:44:25;;;;;;;26.88;17.10;;;;;;;;;;6179452;23;20375;-55
2022/08/19 06:47:02;;;;;;;27.73;16.60;;;;;;;;;;6180666;23;20072;-55
2022/08/19 06:49:40;;;;;;;24.13;16.17;;;;;;;;;;6180090;23;20021;-56
2022/08/19 06:52:15;;;;;;;23.73;15.90;;;;;;;;;;6180513;23;20087;-59
2022/08/19 06:54:43;;;;;;;22.80;16.02;;;;;;;;;;6179896;23;20027;-66
2022/08/19 06:57:22;;;;;;;27.85;17.25;;;;;;;;;;6180779;23;20104;-61
2022/08/19 06:59:56;;;;;;;26.55;16.00;;;;;;;;;;6179560;23;20022;-61
2022/08/19 07:02:26;;;;;;;21.20;16.58;;;;;;;;;;6179916;23;20033;-60
2022/08/19 07:04:53;;;;;;;24.30;16.45;;;;;;;;;;6180581;23;20125;-60
2022/08/19 07:07:26;;;;;;;22.05;15.70;;;;;;;;;;6179947;23;20398;-60
2022/08/19 07:09:54;;;;;;;22.55;16.55;;;;;;;;;;6179289;23;20478;-60
2022/08/19 07:12:26;;;;;;;23.40;17.27;;;;;;;;;;6180528;23;20281;-52
2022/08/19 07:15:05;;;;;;;21.45;16.75;;;;;;;;;;6179503;23;20394;-64
2022/08/19 07:17:35;;;;;;;22.92;16.23;;;;;;;;;;6180834;23;20029;-66
2022/08/19 07:20:10;;;;;;;18.98;14.88;;;;;;;;;;6180135;23;20025;-66
2022/08/19 07:22:38;;;;;;;19.77;15.27;;;;;;;;;;6180474;23;20025;-65
2022/08/19 07:25:07;;;;;;;18.58;15.02;;;;;;;;;;6179747;23;20055;-66
2022/08/19 07:27:41;;;;;;;20.65;15.63;;;;;;;;;;6180336;23;20079;-70
2022/08/19 07:30:24;;;;;;;25.52;17.15;;;;;;;;;;6179695;23;20406;-61
2022/08/19 07:33:00;;;;;;;20.60;16.70;;;;;;;;;;6178821;23;20017;-54
2022/08/19 07:35:31;;;;;;;19.23;16.75;;;;;;;;;;6180385;23;20048;-49
2022/08/19 07:38:06;;;;;;;22.60;17.13;;;;;;;;;;6179915;23;20071;-50
2022/08/19 07:40:33;;;;;;;21.52;16.35;;;;;;;;;;6180160;23;20029;-50
2022/08/19 07:43:00;;;;;;;18.27;15.40;;;;;;;;;;6179206;23;20121;-47
2022/08/19 07:45:39;;;;;;;21.35;15.88;;;;;;;;;;6179725;23;20123;-49
2022/08/19 07:48:06;;;;;;;17.77;14.95;;;;;;;;;;6179391;23;20029;-47
2022/08/19 07:50:41;;;;;;;18.63;15.27;;;;;;;;;;6179916;23;20021;-57
2022/08/19 07:53:08;;;;;;;18.73;15.05;;;;;;;;;;6179135;23;20033;-59
2022/08/19 07:55:35;;;;;;;17.48;14.80;;;;;;;;;;6152733;23;20021;-59
2022/08/19 07:58:11;;;;;;;16.55;14.75;;;;;;;;;;6179035;23;20107;-58
2022/08/19 08:00:38;;;;;;;16.65;14.15;;;;;;;;;;6179891;23;20021;-58
2022/08/19 08:03:06;;;;;;;18.35;13.85;;;;;;;;;;6179491;23;20025;-59
2022/08/19 08:11:20;;;;;;;14.52;13.02;;;;;;;;;;6178155;23;20017;-59
2022/08/19 08:13:49;;;;;;;15.05;12.40;;;;;;;;;;6180023;23;20017;-59
2022/08/19 08:16:31;;;;;;;14.60;12.65;;;;;;;;;;6179654;23;20096;-59
2022/08/19 08:19:14;;;;;;;16.73;12.48;;;;;;;;;;6178794;23;20374;-59
2022/08/19 08:21:52;;;;;;;14.73;13.18;;;;;;;;;;6179706;23;20103;-59
2022/08/19 08:24:27;;;;;;;14.48;12.00;;;;;;;;;;6178894;23;20474;-59
2022/08/19 08:26:56;;;;;;;17.02;13.13;;;;;;;;;;6179705;23;20116;-59
2022/08/19 08:29:24;;;;;;;13.60;12.27;;;;;;;;;;6178259;23;20091;-56
2022/08/19 08:32:07;;;;;;;14.10;12.03;;;;;;;;;;6179839;23;20028;-59
2022/08/19 08:34:41;;;;;;;14.85;13.35;;;;;;;;;;6178100;23;20029;-59
2022/08/19 08:37:18;;;;;;;16.25;13.15;;;;;;;;;;6179770;23;20489;-58
2022/08/19 08:39:46;;;;;;;15.13;12.43;;;;;;;;;;6179860;23;20028;-59
2022/08/19 08:42:23;;;;;;;15.70;12.75;;;;;;;;;;6179538;23;20045;-59
2022/08/19 08:44:59;;;;;;;13.75;11.88;;;;;;;;;;6179589;23;20029;-58
2022/08/19 08:47:28;;;;;;;13.43;12.00;;;;;;;;;;6179769;23;20021;-66
2022/08/19 08:50:17;;;;;;;13.38;12.07;;;;;;;;;;6179096;23;20017;-58
2022/08/19 08:52:56;;;;;;;20.42;13.07;;;;;;;;;;6179795;23;20018;-53
2022/08/19 08:55:25;;;;;;;13.75;12.32;;;;;;;;;;6178954;23;20029;-52
2022/08/19 08:58:03;;;;;;;15.00;13.02;;;;;;;;;;6179553;23;20100;-54
2022/08/19 09:00:30;;;;;;;;;;;;;;;;;;6179941;23;20025;-55
2022/08/19 09:02:58;;;;;;;12.38;11.07;;;;;;;;;;6178830;23;20327;-54
2022/08/19 09:05:47;;;;;;;13.23;11.85;;;;;;;;;;6178874;23;20021;-52
2022/08/19 09:08:24;;;;;;;17.00;13.52;;;;;;;;;;6179624;23;20060;-57
2022/08/19 09:10:59;;;;;;;13.10;11.73;;;;;;;;;;6179219;23;20071;-55
2022/08/19 09:13:26;;;;;;;13.73;12.32;;;;;;;;;;6180064;23;20021;-53
2022/08/19 09:16:01;;;;;;;15.02;12.02;;;;;;;;;;6179175;23;20104;-54
2022/08/19 09:18:41;;;;;;;12.95;11.70;;;;;;;;;;6179308;23;20021;-52
2022/08/19 09:21:08;;;;;;;14.52;11.70;;;;;;;;;;6179159;23;20029;-55
2022/08/19 09:23:43;;;;;;;12.65;10.90;;;;;;;;;;6155827;23;20052;-53
2022/08/19 09:26:13;;;;;;;;;;;;;;;;;;6181016;23;20353;-49
2022/08/19 09:28:43;;;;;;;12.77;11.45;;;;;;;;;;6181055;23;19916;-58
2022/08/19 09:31:24;;;;;;;15.83;10.63;;;;;;;;;;6150644;23;20442;-57
2022/08/19 09:33:52;;;;;;;12.75;10.77;;;;;;;;;;6152226;23;20025;-59
2022/08/19 09:36:38;;;;;;;12.05;10.32;;;;;;;;;;6150827;23;20474;-59
2022/08/19 09:39:06;;;;;;;11.32;10.23;;;;;;;;;;6151069;23;20061;-58
2022/08/19 09:41:42;;;;;;;14.07;10.23;;;;;;;;;;6150806;23;20029;-58
2022/08/19 09:44:15;;;;;;;12.23;10.93;;;;;;;;;;6151754;23;20062;-56
2022/08/19 09:46:52;;;;;;;12.00;10.77;;;;;;;;;;6150625;23;20408;-58
2022/08/19 09:49:23;;;;;;;12.48;10.23;;;;;;;;;;6151736;23;20033;-58
2022/08/19 09:51:57;;;;;;;11.13;10.02;;;;;;;;;;6150777;23;20021;-58
2022/08/19 09:54:24;;;;;;;11.10;10.02;;;;;;;;;;6150549;23;20077;-59
2022/08/19 09:56:52;;;;;;;12.95;9.60;;;;;;;;;;6151057;23;20022;-60
2022/08/19 09:59:29;;;;;;;13.07;10.30;;;;;;;;;;6151850;23;20025;-56
2022/08/19 10:01:59;;;;;;;11.63;10.50;;;;;;;;;;6150639;23;20029;-58
2022/08/19 10:07:23;;;;;;;11.95;9.55;;;;;;;;;;6151938;23;19917;-56
2022/08/19 10:10:06;;;;;;;10.43;8.95;;;;;;;;;;6150245;23;20029;-58
2022/08/19 10:12:34;;;;;;;11.15;9.98;;;;;;;;;;6151539;23;20021;-58
2022/08/19 10:15:08;;;;;;;10.25;9.23;;;;;;;;;;6150112;23;20407;-59
2022/08/19 10:17:35;;;;;;;10.25;8.35;;;;;;;;;;6151263;23;20049;-59
2022/08/19 10:20:04;;;;;;;9.95;8.82;;;;;;;;;;6150328;23;20029;-59
2022/08/19 10:22:38;;;;;;;13.77;9.05;;;;;;;;;;6151170;23;20025;-49
2022/08/19 10:25:05;;;;;;;;;;;;;;;;;;6151267;23;20025;-60
2022/08/19 10:27:32;;;;;;;11.60;8.73;;;;;;;;;;6151463;23;19917;-53
2022/08/19 10:30:19;;;;;;;10.02;8.90;;;;;;;;;;6167200;23;20115;-55
2022/08/19 10:32:53;;;;;;;10.63;9.63;;;;;;;;;;6180655;23;20463;-50
2022/08/19 10:35:37;;;;;;;10.02;9.07;;;;;;;;;;6179214;23;20028;-51
2022/08/19 10:38:24;;;;;;;9.45;8.45;;;;;;;;;;6180483;23;20371;-52
2022/08/19 10:41:06;;;;;;;10.88;9.13;;;;;;;;;;6179659;23;20025;-58
2022/08/19 10:43:36;;;;;;;10.07;9.13;;;;;;;;;;6180587;23;20032;-59
2022/08/19 10:46:12;;;;;;;9.70;8.80;;;;;;;;;;6179870;23;20031;-54
2022/08/19 10:48:43;;;;;;;12.68;8.82;;;;;;;;;;6180563;23;20025;-51
2022/08/19 10:54:13;;;;;;;11.13;8.90;;;;;;;;;;6180514;23;20060;-55
2022/08/19 10:56:53;;;;;;;;;;;;;;;;;;6180348;23;20021;-52
2022/08/19 10:59:28;;;;;;;10.45;9.05;;;;;;;;;;6181435;23;19916;-52
2022/08/19 11:02:03;;;;;;;10.82;8.65;;;;;;;;;;6180351;23;20390;-60
2022/08/19 11:04:37;;;;;;;11.02;8.73;;;;;;;;;;6181217;23;20533;-57
2022/08/19 11:07:06;;;;;;;9.52;8.50;;;;;;;;;;6180385;23;20021;-57
2022/08/19 11:09:38;;;;;;;9.65;8.73;;;;;;;;;;6180424;23;20048;-58
2022/08/19 11:12:13;;;;;;;9.35;8.45;;;;;;;;;;6156454;23;20036;-57
2022/08/19 11:14:40;;;;;;;11.20;9.15;;;;;;;;;;6180324;23;20017;-59
2022/08/19 11:17:07;;;;;;;10.18;8.52;;;;;;;;;;6180125;23;20028;-59
2022/08/19 11:19:42;;;;;;;8.90;8.00;;;;;;;;;;6180760;23;20025;-59
2022/08/19 11:22:09;;;;;;;9.48;8.10;;;;;;;;;;6178966;23;20071;-59
2022/08/19 11:24:42;;;;;;;9.95;8.95;;;;;;;;;;6179967;23;20017;-48
2022/08/19 11:27:16;;;;;;;9.85;8.55;;;;;;;;;;6179689;23;20059;-48
2022/08/19 11:29:43;;;;;;;;;;;;;;;;;;6180101;23;20063;-48
2022/08/19 11:32:17;;;;;;;10.00;8.23;;;;;;;;;;6180022;23;19916;-49
2022/08/19 11:34:52;;;;;;;10.82;8.23;;;;;;;;;;6178863;23;20048;-49
2022/08/19 11:37:19;;;;;;;;;;;;;;;;;;6180097;23;20061;-50
2022/08/19 11:39:46;;;;;;;11.63;8.63;;;;;;;;;;6180122;23;19924;-65
2022/08/19 11:45:08;;;;;;;11.73;8.23;;;;;;;;;;6179251;23;20048;-55
2022/08/19 11:47:44;;;;;;;9.98;8.98;;;;;;;;;;6179513;23;20087;-54
2022/08/19 11:50:11;;;;;;;9.30;8.27;;;;;;;;;;6179221;23;20467;-55
2022/08/19 11:52:38;;;;;;;;;;;;;;;;;;6154576;23;20024;-55
2022/08/19 11:55:14;;;;;;;10.90;8.70;;;;;;;;;;6177803;23;20257;-55
2022/08/19 11:57:43;;;;;;;12.32;8.88;;;;;;;;;;6180120;23;20049;-53
2022/08/19 12:00:12;;;;;;;8.75;7.95;;;;;;;;;;6178576;23;20021;-53
2022/08/19 12:02:46;;;;;;;11.80;8.18;;;;;;;;;;6179645;23;20048;-65
2022/08/19 12:05:13;;;;;;;;;;;;;;;;;;6179833;23;20466;-65
2022/08/19 12:07:43;;;;;;;10.63;9.05;;;;;;;;;;6179377;23;19916;-65
2022/08/19 12:10:17;;;;;;;12.40;8.25;;;;;;;;;;6179135;23;20025;-66
2022/08/19 12:12:47;;;;;;;9.15;8.25;;;;;;;;;;6179295;23;20021;-65
2022/08/19 12:15:24;;;;;;;9.02;8.13;;;;;;;;;;6180032;23;20079;-66
2022/08/19 12:18:03;;;;;;;11.35;9.40;;;;;;;;;;6178620;23;20036;-53
2022/08/19 12:20:31;;;;;;;9.38;8.48;;;;;;;;;;6179839;23;20020;-60
2022/08/19 12:23:02;;;;;;;9.80;8.80;;;;;;;;;;6179831;23;20323;-60
2022/08/19 12:25:36;;;;;;;12.90;8.70;;;;;;;;;;6179109;23;20056;-60
2022/08/19 12:28:04;;;;;;;12.50;8.30;;;;;;;;;;6179380;23;20029;-60
2022/08/19 12:30:31;;;;;;;;;;;;;;;;;;6179897;23;20025;-59
2022/08/19 12:33:10;;;;;;;11.25;8.63;;;;;;;;;;6179402;23;19952;-60
2022/08/19 12:35:40;;;;;;;11.13;8.63;;;;;;;;;;6178290;23;20025;-53
2022/08/19 12:38:15;;;;;;;9.63;8.65;;;;;;;;;;6179409;23;20095;-55
2022/08/19 12:40:45;;;;;;;10.43;8.68;;;;;;;;;;6179114;23;20537;-59
2022/08/19 12:43:13;;;;;;;10.80;8.90;;;;;;;;;;6180144;23;20697;-59
2022/08/19 12:45:47;;;;;;;9.93;8.57;;;;;;;;;;6179867;23;20021;-59
2022/08/19 12:48:14;;;;;;;13.20;8.48;;;;;;;;;;6179762;23;20033;-60
2022/08/19 12:51:01;;;;;;;10.50;8.55;;;;;;;;;;6179010;23;20412;-59
2022/08/19 12:53:37;;;;;;;9.90;9.00;;;;;;;;;;6179590;23;20523;-59
2022/08/19 12:56:05;;;;;;;9.52;8.38;;;;;;;;;;6178928;23;20072;-57
2022/08/19 12:58:38;;;;;;;9.75;8.43;;;;;;;;;;6180102;23;20128;-55
2022/08/19 13:01:17;;;;;;;10.23;9.23;;;;;;;;;;6181550;23;20021;-55
2022/08/19 13:03:49;;;;;;;9.90;9.00;;;;;;;;;;6181605;23;20521;-55
2022/08/19 13:06:23;;;;;;;12.25;8.75;;;;;;;;;;6181478;23;20028;-55
2022/08/19 13:08:50;;;;;;;;;;;;;;;;;;6182352;23;20024;-54
2022/08/19 13:11:19;;;;;;;9.63;8.73;;;;;;;;;;6180486;23;19920;-52
2022/08/19 13:13:54;;;;;;;10.35;9.27;;;;;;;;;;6180982;23;20048;-60
2022/08/19 13:16:22;;;;;;;12.65;9.40;;;;;;;;;;6181655;23;20021;-52
2022/08/19 13:18:52;;;;;;;;;;;;;;;;;;6182111;23;20033;-53
2022/08/19 13:21:28;;;;;;;10.45;8.85;;;;;;;;;;6181170;23;19920;-50
2022/08/19 13:23:56;;;;;;;12.30;8.48;;;;;;;;;;6181462;23;20025;-50
2022/08/19 13:26:23;;;;;;;13.95;9.57;;;;;;;;;;6180313;23;20414;-54
2022/08/19 13:34:51;;;;;;;10.85;8.38;;;;;;;;;;6147063;23;20044;-58
2022/08/19 13:37:40;;;;;;;9.70;8.80;;;;;;;;;;6147623;23;20040;-46
2022/08/19 13:40:16;;;;;;;10.48;8.95;;;;;;;;;;6146817;23;20053;-48
2022/08/19 13:42:52;;;;;;;10.52;9.50;;;;;;;;;;6147551;23;20104;-47
2022/08/19 13:45:27;;;;;;;10.57;9.52;;;;;;;;;;6145549;23;20025;-46
2022/08/19 13:47:56;;;;;;;11.75;8.90;;;;;;;;;;6146147;23;20076;-47
2022/08/19 13:50:27;;;;;;;9.75;8.75;;;;;;;;;;6144229;23;20099;-52
2022/08/19 13:53:02;;;;;;;13.50;9.13;;;;;;;;;;6147101;23;20368;-59
2022/08/19 13:55:29;;;;;;;11.32;9.30;;;;;;;;;;6146677;23;20340;-65
2022/08/19 13:57:58;;;;;;;11.00;10.00;;;;;;;;;;6144878;23;20061;-65
2022/08/19 14:00:37;;;;;;;9.43;8.57;;;;;;;;;;6146474;23;20025;-65
2022/08/19 14:03:04;;;;;;;10.63;9.52;;;;;;;;;;6148495;23;20021;-64
2022/08/19 14:05:35;;;;;;;10.40;9.27;;;;;;;;;;6147969;23;20029;-65
2022/08/19 14:08:10;;;;;;;12.65;9.40;;;;;;;;;;6147730;23;20025;-65
2022/08/19 14:10:37;;;;;;;;;;;;;;;;;;6147059;23;20026;-54
2022/08/19 14:13:04;;;;;;;11.52;9.88;;;;;;;;;;6147422;23;19921;-51
2022/08/19 14:15:38;;;;;;;20.83;9.35;;;;;;;;;;6149125;23;20095;-51
2022/08/19 14:18:05;;;;;;;13.43;9.15;;;;;;;;;;6148963;23;20483;-54
2022/08/19 14:20:32;;;;;;;;;;;;;;;;;;6149112;23;20025;-50
2022/08/19 14:23:06;;;;;;;11.68;10.27;;;;;;;;;;6149661;23;19921;-50
2022/08/19 14:25:33;;;;;;;;;;;;;;;;;;6150222;23;20026;-50
2022/08/19 14:28:01;;;;;;;11.10;9.85;;;;;;;;;;6148792;23;19920;-53
2022/08/19 14:30:44;;;;;;;15.52;10.23;;;;;;;;;;6164650;23;20048;-49
2022/08/19 14:33:11;;;;;;;11.52;9.63;;;;;;;;;;6180583;23;20029;-57
2022/08/19 14:35:45;;;;;;;12.57;10.25;;;;;;;;;;6180109;23;20029;-56
2022/08/19 14:38:12;;;;;;;;;;;;;;;;;;6180912;23;20060;-57
2022/08/19 14:40:41;;;;;;;12.25;10.02;;;;;;;;;;6179982;23;20280;-58
2022/08/19 14:43:17;;;;;;;12.25;9.75;;;;;;;;;;6180594;23;20130;-55
2022/08/19 14:45:44;;;;;;;11.88;10.65;;;;;;;;;;6179382;23;20478;-58
2022/08/19 14:48:12;;;;;;;10.95;9.75;;;;;;;;;;6180436;23;20025;-59
2022/08/19 14:50:47;;;;;;;12.50;10.57;;;;;;;;;;6154949;23;20044;-57
2022/08/19 14:53:16;;;;;;;11.63;9.95;;;;;;;;;;6180165;23;20028;-64
2022/08/19 14:55:44;;;;;;;14.23;9.50;;;;;;;;;;6179703;23;20539;-64
2022/08/19 14:58:18;;;;;;;12.48;10.02;;;;;;;;;;6180363;23;20567;-64
2022/08/19 15:00:57;;;;;;;12.93;10.07;;;;;;;;;;6179839;23;20016;-64
2022/08/19 15:03:31;;;;;;;13.50;10.48;;;;;;;;;;6180149;23;20021;-64
2022/08/19 15:06:00;;;;;;;17.02;10.23;;;;;;;;;;6177722;23;20367;-64
2022/08/19 15:08:28;;;;;;;12.35;10.38;;;;;;;;;;6179083;23;20470;-57
2022/08/19 15:11:02;;;;;;;13.25;9.73;;;;;;;;;;6179952;23;20603;-52
2022/08/19 15:13:29;;;;;;;;;;;;;;;;;;6180422;23;20514;-52
2022/08/19 15:15:57;;;;;;;14.20;9.40;;;;;;;;;;6178901;23;19920;-53
2022/08/19 15:18:32;;;;;;;11.60;10.07;;;;;;;;;;6180134;23;20052;-51
2022/08/19 15:20:59;;;;;;;10.13;9.23;;;;;;;;;;6178384;23;20399;-48
2022/08/19 15:23:26;;;;;;;;;;;;;;;;;;6180971;23;20725;-50
2022/08/19 15:26:00;;;;;;;15.50;9.90;;;;;;;;;;6179935;23;19943;-47